sensor_id;sensor_type;location;lat;lon;timestamp;pressure;altitude;pressure_sealevel;temperature;humidity
51617;BME280;37697;52.588;13.394;2024-02-04T00:00:51;101187.42;;;6.28;100.00
51617;BME280;37697;52.588;13.394;2024-02-04T00:06:35;101206.55;;;6.22;100.00
51617;BME280;37697;52.588;13.394;2024-02-04T00:12:01;101210.70;;;6.21;100.00
51617;BME280;37697;52.588;13.394;2024-02-04T00:17:27;101215.89;;;6.21;100.00
51617;BME280;37697;52.588;13.394;2024-02-04T00:22:45;101198.36;;;6.20;100.00
51617;BME280;37697;52.588;13.394;2024-02-04T00:28:11;101215.16;;;6.19;100.00
51617;BME280;37697;52.588;13.394;2024-02-04T00:33:37;101211.91;;;6.16;100.00
51617;BME280;37697;52.588;13.394;2024-02-04T00:39:03;101213.14;;;6.13;100.00
51617;BME280;37697;52.588;13.394;2024-02-04T00:44:29;101197.08;;;6.06;100.00
51617;BME280;37697;52.588;13.394;2024-02-04T00:49:37;101186.42;;;6.00;100.00
51617;BME280;37697;52.588;13.394;2024-02-04T00:55:01;101183.55;;;5.89;100.00
51617;BME280;37697;52.588;13.394;2024-02-04T01:00:27;101195.48;;;5.78;100.00
51617;BME280;37697;52.588;13.394;2024-02-04T01:05:53;101187.80;;;5.68;100.00
51617;BME280;37697;52.588;13.394;2024-02-04T01:11:09;101178.45;;;5.60;100.00
51617;BME280;37697;52.588;13.394;2024-02-04T01:16:34;101183.27;;;5.49;100.00
51617;BME280;37697;52.588;13.394;2024-02-04T01:22:00;101186.23;;;5.41;100.00
51617;BME280;37697;52.588;13.394;2024-02-04T01:27:26;101199.00;;;5.34;100.00
51617;BME280;37697;52.588;13.394;2024-02-04T01:32:52;101192.33;;;5.34;100.00
51617;BME280;37697;52.588;13.394;2024-02-04T01:38:18;101196.27;;;5.28;100.00
51617;BME280;37697;52.588;13.394;2024-02-04T01:43:44;101185.70;;;5.22;100.00
51617;BME280;37697;52.588;13.394;2024-02-04T01:49:10;101184.43;;;5.14;100.00
51617;BME280;37697;52.588;13.394;2024-02-04T01:54:38;101182.81;;;5.07;100.00
51617;BME280;37697;52.588;13.394;2024-02-04T02:00:08;101188.55;;;4.98;100.00
51617;BME280;37697;52.588;13.394;2024-02-04T02:05:34;101180.81;;;4.89;100.00
51617;BME280;37697;52.588;13.394;2024-02-04T02:11:07;101197.77;;;4.83;100.00
51617;BME280;37697;52.588;13.394;2024-02-04T02:16:20;101181.98;;;4.78;100.00
51617;BME280;37697;52.588;13.394;2024-02-04T02:21:52;101163.70;;;4.74;100.00
51617;BME280;37697;52.588;13.394;2024-02-04T02:27:22;101158.16;;;4.72;100.00
51617;BME280;37697;52.588;13.394;2024-02-04T02:32:49;101168.58;;;4.68;100.00
51617;BME280;37697;52.588;13.394;2024-02-04T02:38:23;101171.98;;;4.60;100.00
51617;BME280;37697;52.588;13.394;2024-02-04T02:43:52;101168.92;;;4.56;100.00
51617;BME280;37697;52.588;13.394;2024-02-04T02:49:19;101173.04;;;4.54;100.00
51617;BME280;37697;52.588;13.394;2024-02-04T02:54:45;101169.16;;;4.58;100.00
51617;BME280;37697;52.588;13.394;2024-02-04T03:00:14;101167.61;;;4.64;100.00
51617;BME280;37697;52.588;13.394;2024-02-04T03:05:39;101162.59;;;4.73;100.00
51617;BME280;37697;52.588;13.394;2024-02-04T03:11:05;101154.69;;;4.83;100.00
51617;BME280;37697;52.588;13.394;2024-02-04T03:16:31;101163.66;;;4.93;100.00
51617;BME280;37697;52.588;13.394;2024-02-04T03:21:59;101162.25;;;4.99;100.00
51617;BME280;37697;52.588;13.394;2024-02-04T03:27:25;101158.90;;;5.01;100.00
51617;BME280;37697;52.588;13.394;2024-02-04T03:32:51;101149.86;;;5.04;100.00
51617;BME280;37697;52.588;13.394;2024-02-04T03:38:10;101142.58;;;5.07;100.00
51617;BME280;37697;52.588;13.394;2024-02-04T03:43:37;101139.75;;;5.09;100.00
51617;BME280;37697;52.588;13.394;2024-02-04T03:49:03;101139.36;;;5.12;100.00
51617;BME280;37697;52.588;13.394;2024-02-04T03:54:29;101132.65;;;5.14;100.00
51617;BME280;37697;52.588;13.394;2024-02-04T03:59:54;101129.21;;;5.13;100.00
51617;BME280;37697;52.588;13.394;2024-02-04T04:05:20;101115.20;;;5.11;100.00
51617;BME280;37697;52.588;13.394;2024-02-04T04:10:46;101112.40;;;5.08;100.00
51617;BME280;37697;52.588;13.394;2024-02-04T04:16:05;101107.31;;;5.08;100.00
51617;BME280;37697;52.588;13.394;2024-02-04T04:21:24;101103.89;;;5.05;100.00
51617;BME280;37697;52.588;13.394;2024-02-04T04:26:49;101093.48;;;5.03;100.00
51617;BME280;37697;52.588;13.394;2024-02-04T04:32:14;101087.36;;;5.00;100.00
51617;BME280;37697;52.588;13.394;2024-02-04T04:37:40;101088.39;;;4.99;100.00
51617;BME280;37697;52.588;13.394;2024-02-04T04:42:58;101085.05;;;4.94;100.00
51617;BME280;37697;52.588;13.394;2024-02-04T04:48:24;101084.84;;;4.90;100.00
51617;BME280;37697;52.588;13.394;2024-02-04T04:53:52;101086.89;;;4.92;100.00
51617;BME280;37697;52.588;13.394;2024-02-04T04:59:18;101075.55;;;4.94;100.00
51617;BME280;37697;52.588;13.394;2024-02-04T05:04:45;101071.58;;;4.93;100.00
51617;BME280;37697;52.588;13.394;2024-02-04T05:10:11;101054.67;;;4.91;100.00
51617;BME280;37697;52.588;13.394;2024-02-04T05:15:36;101052.76;;;4.84;100.00
51617;BME280;37697;52.588;13.394;2024-02-04T05:21:06;101053.22;;;4.77;100.00
51617;BME280;37697;52.588;13.394;2024-02-04T05:26:32;101053.09;;;4.74;100.00
51617;BME280;37697;52.588;13.394;2024-02-04T05:31:57;101039.16;;;4.73;100.00
51617;BME280;37697;52.588;13.394;2024-02-04T05:37:23;101037.14;;;4.74;100.00
51617;BME280;37697;52.588;13.394;2024-02-04T05:42:50;101029.97;;;4.71;100.00
51617;BME280;37697;52.588;13.394;2024-02-04T05:48:17;101027.14;;;4.67;100.00
51617;BME280;37697;52.588;13.394;2024-02-04T05:53:43;101035.86;;;4.67;100.00
51617;BME280;37697;52.588;13.394;2024-02-04T05:59:09;101038.56;;;4.64;100.00
51617;BME280;37697;52.588;13.394;2024-02-04T06:04:35;101040.77;;;4.60;100.00
51617;BME280;37697;52.588;13.394;2024-02-04T06:10:01;101047.26;;;4.61;100.00
51617;BME280;37697;52.588;13.394;2024-02-04T06:15:26;101058.52;;;4.60;100.00
51617;BME280;37697;52.588;13.394;2024-02-04T06:20:45;101052.50;;;4.60;100.00
51617;BME280;37697;52.588;13.394;2024-02-04T06:26:11;101054.34;;;4.64;100.00
51617;BME280;37697;52.588;13.394;2024-02-04T06:31:37;101051.33;;;4.68;100.00
51617;BME280;37697;52.588;13.394;2024-02-04T06:37:03;101050.77;;;4.68;100.00
51617;BME280;37697;52.588;13.394;2024-02-04T06:42:28;101049.48;;;4.71;100.00
51617;BME280;37697;52.588;13.394;2024-02-04T06:47:54;101058.91;;;4.72;100.00
51617;BME280;37697;52.588;13.394;2024-02-04T06:53:20;101055.46;;;4.72;100.00
51617;BME280;37697;52.588;13.394;2024-02-04T06:58:46;101059.30;;;4.73;100.00
51617;BME280;37697;52.588;13.394;2024-02-04T07:04:12;101056.80;;;4.75;100.00
51617;BME280;37697;52.588;13.394;2024-02-04T07:09:29;101047.11;;;4.78;100.00
51617;BME280;37697;52.588;13.394;2024-02-04T07:14:38;101051.08;;;4.80;100.00
51617;BME280;37697;52.588;13.394;2024-02-04T07:20:05;101041.55;;;4.84;100.00
51617;BME280;37697;52.588;13.394;2024-02-04T07:25:30;101030.72;;;4.85;100.00
51617;BME280;37697;52.588;13.394;2024-02-04T07:30:56;101029.02;;;4.86;100.00
51617;BME280;37697;52.588;13.394;2024-02-04T07:36:21;101032.73;;;4.86;100.00
51617;BME280;37697;52.588;13.394;2024-02-04T07:41:47;101025.35;;;4.90;100.00
51617;BME280;37697;52.588;13.394;2024-02-04T07:47:13;101008.54;;;4.96;100.00
51617;BME280;37697;52.588;13.394;2024-02-04T07:52:39;100992.23;;;5.03;100.00
51617;BME280;37697;52.588;13.394;2024-02-04T07:58:05;100979.13;;;5.11;100.00
51617;BME280;37697;52.588;13.394;2024-02-04T08:03:30;100974.92;;;5.20;100.00
51617;BME280;37697;52.588;13.394;2024-02-04T08:08:56;100975.79;;;5.30;100.00
51617;BME280;37697;52.588;13.394;2024-02-04T08:14:15;100974.92;;;5.41;100.00
51617;BME280;37697;52.588;13.394;2024-02-04T08:19:40;100977.00;;;5.50;100.00
51617;BME280;37697;52.588;13.394;2024-02-04T08:25:08;100975.59;;;5.60;100.00
51617;BME280;37697;52.588;13.394;2024-02-04T08:30:33;100971.42;;;5.67;100.00
51617;BME280;37697;52.588;13.394;2024-02-04T08:36:00;100960.90;;;5.74;100.00
51617;BME280;37697;52.588;13.394;2024-02-04T08:41:26;100944.38;;;5.80;100.00
51617;BME280;37697;52.588;13.394;2024-02-04T08:46:51;100947.29;;;5.84;100.00
51617;BME280;37697;52.588;13.394;2024-02-04T08:52:17;100937.52;;;5.89;100.00
51617;BME280;37697;52.588;13.394;2024-02-04T08:57:43;100930.77;;;5.93;100.00
51617;BME280;37697;52.588;13.394;2024-02-04T09:03:08;100931.52;;;5.97;100.00
51617;BME280;37697;52.588;13.394;2024-02-04T09:08:35;100929.58;;;6.02;100.00
51617;BME280;37697;52.588;13.394;2024-02-04T09:14:00;100930.91;;;6.08;100.00
51617;BME280;37697;52.588;13.394;2024-02-04T09:19:26;100935.13;;;6.11;100.00
51617;BME280;37697;52.588;13.394;2024-02-04T09:24:52;100937.19;;;6.16;100.00
51617;BME280;37697;52.588;13.394;2024-02-04T09:30:18;100933.30;;;6.22;100.00
51617;BME280;37697;52.588;13.394;2024-02-04T09:35:44;100939.50;;;6.29;100.00
51617;BME280;37697;52.588;13.394;2024-02-04T09:41:10;100935.36;;;6.38;100.00
51617;BME280;37697;52.588;13.394;2024-02-04T09:46:36;100931.73;;;6.50;100.00
51617;BME280;37697;52.588;13.394;2024-02-04T09:52:07;100923.75;;;6.60;100.00
51617;BME280;37697;52.588;13.394;2024-02-04T09:57:33;100919.21;;;6.69;100.00
51617;BME280;37697;52.588;13.394;2024-02-04T10:03:01;100906.67;;;6.71;100.00
51617;BME280;37697;52.588;13.394;2024-02-04T10:08:28;100913.57;;;6.72;100.00
51617;BME280;37697;52.588;13.394;2024-02-04T10:13:54;100910.40;;;6.72;100.00
51617;BME280;37697;52.588;13.394;2024-02-04T10:19:25;100910.30;;;6.79;100.00
51617;BME280;37697;52.588;13.394;2024-02-04T10:24:54;100903.94;;;6.91;100.00
51617;BME280;37697;52.588;13.394;2024-02-04T10:30:30;100892.04;;;7.07;100.00
51617;BME280;37697;52.588;13.394;2024-02-04T10:35:56;100885.72;;;7.17;100.00
51617;BME280;37697;52.588;13.394;2024-02-04T10:41:22;100871.67;;;7.26;100.00
51617;BME280;37697;52.588;13.394;2024-02-04T10:46:51;100872.27;;;7.30;99.90
51617;BME280;37697;52.588;13.394;2024-02-04T10:52:18;100871.48;;;7.33;99.50
51617;BME280;37697;52.588;13.394;2024-02-04T10:57:45;100866.94;;;7.33;99.04
51617;BME280;37697;52.588;13.394;2024-02-04T11:03:12;100872.15;;;7.31;99.04
51617;BME280;37697;52.588;13.394;2024-02-04T11:08:23;100859.83;;;7.27;98.68
51617;BME280;37697;52.588;13.394;2024-02-04T11:13:49;100857.09;;;7.26;98.62
51617;BME280;37697;52.588;13.394;2024-02-04T11:19:14;100866.14;;;7.25;97.53
51617;BME280;37697;52.588;13.394;2024-02-04T11:24:57;100862.27;;;7.23;97.28
51617;BME280;37697;52.588;13.394;2024-02-04T11:30:24;100849.69;;;7.20;96.65
51617;BME280;37697;52.588;13.394;2024-02-04T11:36:02;100846.66;;;7.16;96.67
51617;BME280;37697;52.588;13.394;2024-02-04T11:41:28;100824.27;;;7.12;95.31
51617;BME280;37697;52.588;13.394;2024-02-04T11:46:56;100812.69;;;7.07;95.26
51617;BME280;37697;52.588;13.394;2024-02-04T11:52:22;100786.65;;;7.10;95.87
51617;BME280;37697;52.588;13.394;2024-02-04T11:57:48;100784.84;;;7.12;94.86
51617;BME280;37697;52.588;13.394;2024-02-04T12:03:14;100779.90;;;7.13;94.61
51617;BME280;37697;52.588;13.394;2024-02-04T12:08:40;100790.05;;;7.20;94.65
51617;BME280;37697;52.588;13.394;2024-02-04T12:14:07;100794.44;;;7.20;93.94
51617;BME280;37697;52.588;13.394;2024-02-04T12:19:32;100800.38;;;7.15;93.72
51617;BME280;37697;52.588;13.394;2024-02-04T12:24:59;100792.73;;;7.10;93.27
51617;BME280;37697;52.588;13.394;2024-02-04T12:30:25;100789.51;;;7.06;92.94
51617;BME280;37697;52.588;13.394;2024-02-04T12:35:52;100784.25;;;7.06;92.21
51617;BME280;37697;52.588;13.394;2024-02-04T12:41:18;100787.42;;;7.08;92.08
51617;BME280;37697;52.588;13.394;2024-02-04T12:46:44;100788.95;;;7.09;92.38
51617;BME280;37697;52.588;13.394;2024-02-04T12:52:10;100776.39;;;7.13;92.03
51617;BME280;37697;52.588;13.394;2024-02-04T12:57:36;100773.27;;;7.18;91.88
51617;BME280;37697;52.588;13.394;2024-02-04T13:03:02;100777.69;;;7.19;90.99
51617;BME280;37697;52.588;13.394;2024-02-04T13:08:14;100779.55;;;7.19;90.40
51617;BME280;37697;52.588;13.394;2024-02-04T13:13:43;100780.31;;;7.20;90.66
51617;BME280;37697;52.588;13.394;2024-02-04T13:19:18;100784.14;;;7.23;90.79
51617;BME280;37697;52.588;13.394;2024-02-04T13:24:44;100784.30;;;7.23;89.28
51617;BME280;37697;52.588;13.394;2024-02-04T13:30:11;100784.27;;;7.18;89.66
51617;BME280;37697;52.588;13.394;2024-02-04T13:35:37;100791.08;;;7.12;89.19
51617;BME280;37697;52.588;13.394;2024-02-04T13:41:04;100785.17;;;7.09;89.96
51617;BME280;37697;52.588;13.394;2024-02-04T13:46:23;100779.10;;;7.05;89.60
51617;BME280;37697;52.588;13.394;2024-02-04T13:51:48;100771.54;;;7.03;89.77
51617;BME280;37697;52.588;13.394;2024-02-04T13:57:15;100771.55;;;7.02;89.90
51617;BME280;37697;52.588;13.394;2024-02-04T14:02:40;100777.41;;;7.01;90.09
51617;BME280;37697;52.588;13.394;2024-02-04T14:08:08;100779.06;;;7.00;89.43
51617;BME280;37697;52.588;13.394;2024-02-04T14:13:33;100768.99;;;6.97;89.85
51617;BME280;37697;52.588;13.394;2024-02-04T14:18:59;100768.66;;;6.97;90.17
51617;BME280;37697;52.588;13.394;2024-02-04T14:24:25;100766.25;;;6.99;90.67
51617;BME280;37697;52.588;13.394;2024-02-04T14:29:44;100765.27;;;7.02;90.22
51617;BME280;37697;52.588;13.394;2024-02-04T14:35:10;100762.63;;;7.03;90.22
51617;BME280;37697;52.588;13.394;2024-02-04T14:40:36;100762.57;;;7.05;90.38
51617;BME280;37697;52.588;13.394;2024-02-04T14:46:02;100751.99;;;7.05;90.54
51617;BME280;37697;52.588;13.394;2024-02-04T14:51:28;100757.46;;;7.03;90.72
51617;BME280;37697;52.588;13.394;2024-02-04T14:56:54;100750.20;;;7.02;90.29
51617;BME280;37697;52.588;13.394;2024-02-04T15:02:19;100756.93;;;7.02;90.56
51617;BME280;37697;52.588;13.394;2024-02-04T15:07:36;100746.86;;;7.03;90.31
51617;BME280;37697;52.588;13.394;2024-02-04T15:13:03;100743.09;;;7.02;90.43
51617;BME280;37697;52.588;13.394;2024-02-04T15:18:30;100745.11;;;7.01;90.50
51617;BME280;37697;52.588;13.394;2024-02-04T15:23:57;100752.61;;;6.99;90.24
51617;BME280;37697;52.588;13.394;2024-02-04T15:29:23;100764.77;;;6.98;90.59
51617;BME280;37697;52.588;13.394;2024-02-04T15:34:50;100759.67;;;6.98;90.60
51617;BME280;37697;52.588;13.394;2024-02-04T15:40:16;100751.96;;;6.98;90.64
51617;BME280;37697;52.588;13.394;2024-02-04T15:45:43;100744.84;;;6.99;90.39
51617;BME280;37697;52.588;13.394;2024-02-04T15:51:10;100736.68;;;6.98;90.31
51617;BME280;37697;52.588;13.394;2024-02-04T15:56:41;100734.88;;;6.97;90.59
51617;BME280;37697;52.588;13.394;2024-02-04T16:02:09;100733.34;;;6.96;90.22
51617;BME280;37697;52.588;13.394;2024-02-04T16:07:35;100742.83;;;6.96;90.16
51617;BME280;37697;52.588;13.394;2024-02-04T16:13:01;100743.21;;;6.96;90.26
51617;BME280;37697;52.588;13.394;2024-02-04T16:18:16;100742.13;;;6.95;90.55
51617;BME280;37697;52.588;13.394;2024-02-04T16:23:42;100740.98;;;6.94;90.51
51617;BME280;37697;52.588;13.394;2024-02-04T16:29:08;100744.09;;;6.98;91.07
51617;BME280;37697;52.588;13.394;2024-02-04T16:34:33;100733.61;;;6.98;90.40
51617;BME280;37697;52.588;13.394;2024-02-04T16:39:59;100732.15;;;6.96;90.95
51617;BME280;37697;52.588;13.394;2024-02-04T16:45:25;100726.84;;;6.95;90.87
51617;BME280;37697;52.588;13.394;2024-02-04T16:50:43;100718.99;;;6.96;91.11
51617;BME280;37697;52.588;13.394;2024-02-04T16:56:09;100714.45;;;6.96;90.51
51617;BME280;37697;52.588;13.394;2024-02-04T17:01:35;100708.38;;;6.96;91.01
51617;BME280;37697;52.588;13.394;2024-02-04T17:07:01;100711.77;;;6.97;91.21
51617;BME280;37697;52.588;13.394;2024-02-04T17:12:28;100711.87;;;6.98;91.36
51617;BME280;37697;52.588;13.394;2024-02-04T17:18:00;100709.73;;;6.99;90.94
51617;BME280;37697;52.588;13.394;2024-02-04T17:23:31;100704.63;;;7.01;91.03
51617;BME280;37697;52.588;13.394;2024-02-04T17:29:00;100701.56;;;7.03;91.08
51617;BME280;37697;52.588;13.394;2024-02-04T17:34:27;100692.52;;;7.03;91.03
51617;BME280;37697;52.588;13.394;2024-02-04T17:39:53;100689.98;;;7.04;91.19
51617;BME280;37697;52.588;13.394;2024-02-04T17:45:20;100683.09;;;7.05;91.29
51617;BME280;37697;52.588;13.394;2024-02-04T17:50:50;100681.94;;;7.06;91.40
51617;BME280;37697;52.588;13.394;2024-02-04T17:56:24;100680.40;;;7.06;91.38
51617;BME280;37697;52.588;13.394;2024-02-04T18:01:49;100670.44;;;7.05;91.16
51617;BME280;37697;52.588;13.394;2024-02-04T18:07:10;100671.21;;;7.06;91.19
51617;BME280;37697;52.588;13.394;2024-02-04T18:12:37;100673.34;;;7.06;91.54
51617;BME280;37697;52.588;13.394;2024-02-04T18:18:05;100674.45;;;7.03;91.66
51617;BME280;37697;52.588;13.394;2024-02-04T18:23:32;100681.91;;;7.00;92.15
51617;BME280;37697;52.588;13.394;2024-02-04T18:28:59;100683.99;;;6.98;92.19
51617;BME280;37697;52.588;13.394;2024-02-04T18:34:27;100682.70;;;6.96;92.77
51617;BME280;37697;52.588;13.394;2024-02-04T18:39:54;100678.06;;;6.93;92.98
51617;BME280;37697;52.588;13.394;2024-02-04T18:45:21;100676.74;;;6.89;93.34
51617;BME280;37697;52.588;13.394;2024-02-04T18:50:50;100670.10;;;6.85;93.94
51617;BME280;37697;52.588;13.394;2024-02-04T18:56:18;100666.45;;;6.82;94.63
51617;BME280;37697;52.588;13.394;2024-02-04T19:01:44;100655.44;;;6.78;94.81
51617;BME280;37697;52.588;13.394;2024-02-04T19:07:10;100647.79;;;6.75;95.44
51617;BME280;37697;52.588;13.394;2024-02-04T19:12:37;100651.91;;;6.72;95.85
51617;BME280;37697;52.588;13.394;2024-02-04T19:18:04;100645.70;;;6.68;96.19
51617;BME280;37697;52.588;13.394;2024-02-04T19:23:32;100642.84;;;6.67;96.60
51617;BME280;37697;52.588;13.394;2024-02-04T19:28:59;100641.58;;;6.66;96.55
51617;BME280;37697;52.588;13.394;2024-02-04T19:34:26;100639.12;;;6.67;97.01
51617;BME280;37697;52.588;13.394;2024-02-04T19:39:54;100634.95;;;6.69;97.29
51617;BME280;37697;52.588;13.394;2024-02-04T19:45:22;100634.79;;;6.71;97.59
51617;BME280;37697;52.588;13.394;2024-02-04T19:50:49;100634.34;;;6.70;97.78
51617;BME280;37697;52.588;13.394;2024-02-04T19:56:19;100633.27;;;6.68;97.94
51617;BME280;37697;52.588;13.394;2024-02-04T20:01:46;100624.95;;;6.67;98.38
51617;BME280;37697;52.588;13.394;2024-02-04T20:07:13;100619.09;;;6.64;98.60
51617;BME280;37697;52.588;13.394;2024-02-04T20:12:40;100622.27;;;6.63;98.94
51617;BME280;37697;52.588;13.394;2024-02-04T20:18:07;100616.64;;;6.62;99.39
51617;BME280;37697;52.588;13.394;2024-02-04T20:23:33;100620.48;;;6.60;99.90
51617;BME280;37697;52.588;13.394;2024-02-04T20:28:58;100607.04;;;6.57;100.00
51617;BME280;37697;52.588;13.394;2024-02-04T20:34:25;100592.65;;;6.53;100.00
51617;BME280;37697;52.588;13.394;2024-02-04T20:39:59;100590.86;;;6.50;100.00
51617;BME280;37697;52.588;13.394;2024-02-04T20:45:26;100589.07;;;6.46;100.00
51617;BME280;37697;52.588;13.394;2024-02-04T20:50:53;100581.60;;;6.39;100.00
51617;BME280;37697;52.588;13.394;2024-02-04T20:56:20;100572.05;;;6.33;100.00
51617;BME280;37697;52.588;13.394;2024-02-04T21:01:40;100569.45;;;6.25;100.00
51617;BME280;37697;52.588;13.394;2024-02-04T21:07:06;100563.29;;;6.18;100.00
51617;BME280;37697;52.588;13.394;2024-02-04T21:12:32;100564.56;;;6.13;100.00
51617;BME280;37697;52.588;13.394;2024-02-04T21:17:58;100561.02;;;6.05;100.00
51617;BME280;37697;52.588;13.394;2024-02-04T21:23:24;100556.94;;;5.98;100.00
51617;BME280;37697;52.588;13.394;2024-02-04T21:28:50;100553.83;;;5.88;100.00
51617;BME280;37697;52.588;13.394;2024-02-04T21:34:15;100548.97;;;5.83;100.00
51617;BME280;37697;52.588;13.394;2024-02-04T21:39:31;100535.47;;;5.77;100.00
51617;BME280;37697;52.588;13.394;2024-02-04T21:44:57;100523.79;;;5.70;100.00
51617;BME280;37697;52.588;13.394;2024-02-04T21:50:22;100505.32;;;5.65;100.00
51617;BME280;37697;52.588;13.394;2024-02-04T21:55:41;100497.58;;;5.64;100.00
51617;BME280;37697;52.588;13.394;2024-02-04T22:01:07;100486.20;;;5.62;100.00
51617;BME280;37697;52.588;13.394;2024-02-04T22:06:33;100478.08;;;5.60;100.00
51617;BME280;37697;52.588;13.394;2024-02-04T22:11:59;100469.00;;;5.59;100.00
51617;BME280;37697;52.588;13.394;2024-02-04T22:17:13;100459.88;;;5.58;100.00
51617;BME280;37697;52.588;13.394;2024-02-04T22:22:39;100454.25;;;5.59;100.00
51617;BME280;37697;52.588;13.394;2024-02-04T22:28:05;100454.89;;;5.59;100.00
51617;BME280;37697;52.588;13.394;2024-02-04T22:33:31;100453.16;;;5.59;100.00
51617;BME280;37697;52.588;13.394;2024-02-04T22:38:57;100448.45;;;5.57;100.00
51617;BME280;37697;52.588;13.394;2024-02-04T22:44:23;100442.55;;;5.59;100.00
51617;BME280;37697;52.588;13.394;2024-02-04T22:49:48;100439.65;;;5.61;100.00
51617;BME280;37697;52.588;13.394;2024-02-04T22:55:14;100432.49;;;5.62;100.00
51617;BME280;37697;52.588;13.394;2024-02-04T23:00:40;100418.83;;;5.63;100.00
51617;BME280;37697;52.588;13.394;2024-02-04T23:06:06;100412.60;;;5.66;100.00
51617;BME280;37697;52.588;13.394;2024-02-04T23:11:32;100402.70;;;5.66;100.00
51617;BME280;37697;52.588;13.394;2024-02-04T23:16:58;100388.38;;;5.69;100.00
51617;BME280;37697;52.588;13.394;2024-02-04T23:22:16;100373.88;;;5.71;100.00
51617;BME280;37697;52.588;13.394;2024-02-04T23:27:42;100365.41;;;5.74;100.00
51617;BME280;37697;52.588;13.394;2024-02-04T23:33:07;100354.23;;;5.76;100.00
51617;BME280;37697;52.588;13.394;2024-02-04T23:38:33;100333.96;;;5.77;100.00
51617;BME280;37697;52.588;13.394;2024-02-04T23:43:59;100324.48;;;5.80;100.00
51617;BME280;37697;52.588;13.394;2024-02-04T23:49:25;100314.48;;;5.83;100.00
51617;BME280;37697;52.588;13.394;2024-02-04T23:54:51;100310.73;;;5.86;100.00
